createdAt,value
2019-03-22T00:00:56.617Z,96.12
2019-03-22T00:01:56.617Z,95.94
2019-03-22T00:02:56.614Z,95.84
2019-03-22T00:03:56.594Z,95.56
2019-03-22T00:04:56.588Z,95.65
2019-03-22T00:05:56.582Z,95.65
2019-03-22T00:06:56.574Z,95.65
2019-03-22T00:07:56.568Z,96.51
2019-03-22T00:08:56.550Z,96.51
2019-03-22T00:09:56.554Z,96.60
2019-03-22T00:10:56.538Z,96.60
2019-03-22T00:11:56.530Z,96.89
2019-03-22T00:12:56.515Z,96.31
2019-03-22T00:13:56.508Z,96.12
2019-03-22T00:14:56.503Z,96.22
2019-03-22T00:15:56.495Z,96.51
2019-03-22T00:16:56.489Z,96.22
2019-03-22T00:17:56.481Z,96.31
2019-03-22T00:18:56.478Z,96.31
2019-03-22T00:19:56.466Z,96.51
2019-03-22T00:20:56.451Z,96.51
2019-03-22T00:21:56.444Z,96.31
2019-03-22T00:22:56.434Z,96.22
2019-03-22T00:23:56.423Z,96.51
2019-03-22T00:24:56.421Z,96.31
2019-03-22T00:25:56.413Z,95.65
2019-03-22T00:26:56.419Z,95.84
2019-03-22T00:27:56.391Z,95.94
2019-03-22T00:28:56.389Z,95.75
2019-03-22T00:29:56.390Z,96.79
2019-03-22T00:30:56.375Z,96.31
2019-03-22T00:31:56.365Z,96.31
2019-03-22T00:32:56.354Z,96.22
2019-03-22T00:33:56.345Z,96.60
2019-03-22T00:34:56.336Z,96.70
2019-03-22T00:35:56.326Z,96.89
2019-03-22T00:36:56.323Z,96.70
2019-03-22T00:37:56.314Z,96.51
2019-03-22T00:38:56.304Z,96.60
2019-03-22T00:39:56.295Z,96.89
2019-03-22T00:40:56.282Z,96.70
2019-03-22T00:41:56.275Z,96.70
2019-03-22T00:42:56.274Z,95.84
2019-03-22T00:43:56.262Z,95.65
2019-03-22T00:44:56.253Z,95.27
2019-03-22T00:45:56.240Z,95.17
2019-03-22T00:46:56.236Z,95.08
2019-03-22T00:47:56.228Z,95.08
2019-03-22T00:48:56.223Z,95.17
2019-03-22T00:49:56.220Z,94.60
2019-03-22T00:50:56.204Z,94.42
2019-03-22T00:51:56.194Z,95.17
2019-03-22T00:52:56.183Z,95.08
2019-03-22T00:53:56.176Z,94.98
2019-03-22T00:54:56.169Z,94.98
2019-03-22T00:55:56.160Z,94.98
2019-03-22T00:56:56.155Z,94.89
2019-03-22T00:57:56.148Z,94.84
2019-03-22T00:58:56.135Z,95.03
2019-03-22T00:59:56.125Z,95.03
2019-03-22T01:00:56.121Z,95.22
2019-03-22T01:01:56.113Z,95.03
2019-03-22T01:02:56.101Z,94.84
2019-03-22T01:03:56.094Z,94.65
2019-03-22T01:04:56.083Z,95.41
2019-03-22T01:05:56.075Z,95.70
2019-03-22T01:06:56.067Z,95.98
2019-03-22T01:07:56.055Z,95.70
2019-03-22T01:08:56.051Z,95.98
2019-03-22T01:09:56.043Z,95.79
2019-03-22T01:10:56.036Z,95.79
2019-03-22T01:11:56.027Z,95.79
2019-03-22T01:12:56.014Z,95.51
2019-03-22T01:13:56.006Z,96.36
2019-03-22T01:14:56.002Z,96.46
2019-03-22T01:15:55.993Z,96.26
2019-03-22T01:16:55.979Z,96.46
2019-03-22T01:17:55.971Z,96.94
2019-03-22T01:18:55.961Z,96.65
2019-03-22T01:19:55.950Z,97.03
2019-03-22T01:20:55.946Z,97.31
2019-03-22T01:21:55.938Z,97.22
2019-03-22T01:22:55.930Z,97.22
2019-03-22T01:23:55.922Z,97.03
2019-03-22T01:24:55.907Z,96.55
2019-03-22T01:25:55.899Z,96.26
2019-03-22T01:26:55.893Z,96.36
2019-03-22T01:27:55.884Z,96.65
2019-03-22T01:28:55.879Z,96.46
2019-03-22T01:29:55.871Z,96.74
2019-03-22T01:30:55.859Z,96.84
2019-03-22T01:31:55.851Z,96.55
2019-03-22T01:32:55.845Z,96.94
2019-03-22T01:33:55.838Z,96.65
2019-03-22T01:34:55.826Z,96.74
2019-03-22T01:35:55.815Z,96.46
2019-03-22T01:36:55.804Z,97.03
2019-03-22T01:37:55.794Z,96.65
2019-03-22T01:38:55.786Z,96.89
2019-03-22T01:39:55.775Z,96.50
2019-03-22T01:40:55.772Z,96.50
2019-03-22T01:41:55.764Z,96.84
2019-03-22T01:42:55.757Z,96.69
2019-03-22T01:43:55.748Z,97.13
2019-03-22T01:44:55.734Z,97.55
2019-03-22T01:45:55.727Z,97.64
2019-03-22T01:46:55.723Z,97.36
2019-03-22T01:47:55.719Z,97.45
2019-03-22T01:48:55.702Z,98.22
2019-03-22T01:49:55.691Z,98.31
2019-03-22T01:50:55.679Z,98.22
2019-03-22T01:51:55.671Z,97.93
2019-03-22T01:52:55.667Z,98.03
2019-03-22T01:53:55.665Z,98.50
2019-03-22T01:54:55.649Z,97.64
2019-03-22T01:55:55.642Z,98.03
2019-03-22T01:56:55.627Z,97.74
2019-03-22T01:57:55.618Z,98.12
2019-03-22T01:58:55.611Z,97.83
2019-03-22T01:59:55.602Z,98.55
2019-03-22T02:00:55.596Z,98.46
2019-03-22T02:01:55.589Z,98.17
2019-03-22T02:02:55.577Z,98.17
2019-03-22T02:03:55.566Z,97.98
2019-03-22T02:04:55.563Z,98.55
2019-03-22T02:05:55.555Z,98.08
2019-03-22T02:06:55.541Z,98.17
2019-03-22T02:07:55.534Z,97.60
2019-03-22T02:08:55.518Z,97.22
2019-03-22T02:09:55.510Z,97.36
2019-03-22T02:10:55.500Z,96.50
2019-03-22T02:11:55.493Z,96.60
2019-03-22T02:12:55.488Z,97.41
2019-03-22T02:13:55.480Z,96.60
2019-03-22T02:14:55.472Z,96.89
2019-03-22T02:15:55.463Z,96.31
2019-03-22T02:16:55.450Z,96.89
2019-03-22T02:17:55.440Z,96.31
2019-03-22T02:18:55.436Z,96.41
2019-03-22T02:19:55.429Z,96.79
2019-03-22T02:20:55.419Z,97.36
2019-03-22T02:21:55.406Z,97.74
2019-03-22T02:22:55.399Z,98.50
2019-03-22T02:23:55.383Z,98.50
2019-03-22T02:24:55.379Z,98.50
2019-03-22T02:25:55.370Z,98.97
2019-03-22T02:26:55.360Z,99.07
2019-03-22T02:28:03.704Z,98.97
2019-03-22T02:28:55.338Z,98.88
2019-03-22T02:29:55.333Z,98.88
2019-03-22T02:30:55.333Z,98.79
2019-03-22T02:37:55.259Z,98.88
2019-03-22T02:38:55.250Z,98.88
2019-03-22T02:39:55.239Z,98.79
2019-03-22T02:40:55.236Z,98.69
2019-03-22T02:41:55.225Z,98.88
2019-03-22T02:42:55.216Z,98.69
2019-03-22T02:43:55.245Z,99.07
2019-03-22T02:44:55.191Z,99.16
2019-03-22T02:45:55.182Z,98.69
2019-03-22T02:46:55.177Z,98.60
2019-03-22T02:47:55.166Z,98.69
2019-03-22T02:48:55.165Z,98.69
2019-03-22T02:49:55.153Z,98.50
2019-03-22T02:50:56.247Z,98.69
2019-03-22T02:51:55.130Z,98.97
2019-03-22T02:52:55.193Z,98.46
2019-03-22T02:53:55.117Z,98.31
2019-03-22T02:54:55.115Z,98.36
2019-03-22T02:55:55.213Z,98.41
2019-03-22T02:56:55.087Z,98.41
2019-03-22T02:57:55.072Z,98.41
2019-03-22T02:58:55.073Z,97.93
2019-03-22T02:59:55.058Z,98.12
2019-03-22T03:00:55.056Z,97.55
2019-03-22T03:01:55.041Z,97.36
2019-03-22T03:02:55.045Z,97.45
2019-03-22T03:03:55.033Z,97.36
2019-03-22T03:04:55.007Z,97.36
2019-03-22T03:05:54.998Z,97.17
2019-03-22T03:06:54.993Z,97.17
2019-03-22T03:07:54.984Z,96.79
2019-03-22T03:08:54.969Z,97.17
2019-03-22T03:09:54.959Z,97.36
2019-03-22T03:10:54.955Z,97.17
2019-03-22T03:11:54.950Z,97.36
2019-03-22T03:12:54.940Z,96.98
2019-03-22T03:13:54.965Z,97.17
2019-03-22T03:14:54.934Z,97.36
2019-03-22T03:15:54.914Z,97.45
2019-03-22T03:16:54.912Z,98.03
2019-03-22T03:17:54.889Z,98.12
2019-03-22T03:18:54.882Z,98.12
2019-03-22T03:19:54.870Z,98.60
2019-03-22T03:20:54.866Z,98.50
2019-03-22T03:21:54.889Z,98.69
2019-03-22T03:22:54.841Z,98.88
2019-03-22T03:23:54.842Z,98.79
2019-03-22T03:24:54.829Z,98.69
2019-03-22T03:25:54.821Z,98.69
2019-03-22T03:26:54.812Z,98.22
2019-03-22T03:27:54.801Z,98.12
2019-03-22T03:28:54.787Z,97.45
2019-03-22T03:29:54.778Z,97.08
2019-03-22T03:30:54.785Z,97.36
2019-03-22T03:31:54.763Z,96.98
2019-03-22T03:32:54.903Z,96.89
2019-03-22T03:33:54.759Z,96.79
2019-03-22T03:34:54.736Z,97.08
2019-03-22T03:35:54.727Z,97.08
2019-03-22T03:36:54.712Z,96.74
2019-03-22T03:37:54.703Z,96.50
2019-03-22T03:38:54.699Z,97.03
2019-03-22T03:39:54.689Z,96.84
2019-03-22T03:40:54.676Z,96.84
2019-03-22T03:41:54.665Z,97.12
2019-03-22T03:42:54.658Z,96.93
2019-03-22T03:43:54.651Z,97.50
2019-03-22T03:44:54.642Z,97.60
2019-03-22T03:45:54.640Z,97.60
2019-03-22T03:46:54.629Z,97.60
2019-03-22T03:47:54.614Z,97.31
2019-03-22T03:48:54.612Z,97.31
2019-03-22T03:49:54.707Z,98.07
2019-03-22T03:50:54.582Z,98.26
2019-03-22T03:51:54.572Z,98.07
2019-03-22T03:52:54.568Z,98.07
2019-03-22T03:53:54.558Z,98.26
2019-03-22T03:54:54.544Z,97.69
2019-03-22T03:55:54.534Z,97.88
2019-03-22T03:56:54.530Z,98.26
2019-03-22T03:57:54.522Z,98.36
2019-03-22T03:58:54.517Z,98.36
2019-03-22T03:59:54.503Z,98.26
2019-03-22T04:00:54.491Z,98.07
2019-03-22T04:01:54.484Z,98.36
2019-03-22T04:02:54.469Z,98.26
2019-03-22T04:03:54.460Z,98.36
2019-03-22T04:04:54.455Z,97.97
2019-03-22T04:05:54.444Z,97.69
2019-03-22T04:06:54.441Z,97.97
2019-03-22T04:07:54.440Z,97.97
2019-03-22T04:08:54.415Z,98.26
2019-03-22T04:09:54.407Z,98.36
2019-03-22T04:10:54.420Z,98.45
2019-03-22T04:11:54.399Z,98.55
2019-03-22T04:12:54.379Z,98.17
2019-03-22T04:13:54.368Z,97.97
2019-03-22T04:14:54.357Z,98.07
2019-03-22T04:15:54.347Z,97.97
2019-03-22T04:16:54.352Z,97.97
2019-03-22T04:17:54.334Z,97.78
2019-03-22T04:18:54.323Z,97.41
2019-03-22T04:19:54.311Z,97.31
2019-03-22T04:20:54.299Z,97.22
2019-03-22T04:21:54.291Z,97.22
2019-03-22T04:22:54.285Z,97.22
2019-03-22T04:23:54.273Z,97.60
2019-03-22T04:24:54.272Z,97.31
2019-03-22T04:25:54.259Z,97.12
2019-03-22T04:26:54.245Z,97.36
2019-03-22T04:27:54.240Z,97.45
2019-03-22T04:29:06.523Z,97.12
2019-03-22T04:29:54.230Z,97.36
2019-03-22T04:30:54.214Z,97.31
2019-03-22T04:31:54.199Z,97.17
2019-03-22T04:32:54.187Z,97.27
2019-03-22T04:33:54.176Z,97.17
2019-03-22T04:34:54.168Z,97.27
2019-03-22T04:35:54.157Z,97.92
2019-03-22T04:36:54.159Z,97.45
2019-03-22T04:37:54.144Z,97.97
2019-03-22T04:38:54.136Z,97.55
2019-03-22T04:39:54.125Z,97.55
2019-03-22T04:40:54.114Z,97.45
2019-03-22T04:41:54.101Z,96.93
2019-03-22T04:42:54.098Z,96.69
2019-03-22T04:43:54.088Z,97.17
2019-03-22T04:44:54.074Z,97.27
2019-03-22T04:45:54.065Z,96.79
2019-03-22T04:46:54.052Z,96.88
2019-03-22T04:47:54.042Z,96.69
2019-03-22T04:48:54.041Z,97.17
2019-03-22T04:49:54.030Z,97.27
2019-03-22T04:50:54.020Z,97.27
2019-03-22T04:51:54.007Z,97.07
2019-03-22T04:52:53.994Z,97.17
2019-03-22T04:53:53.985Z,97.17
2019-03-22T04:54:54.032Z,96.79
2019-03-22T04:55:53.970Z,97.17
2019-03-22T04:56:53.962Z,97.36
2019-03-22T04:57:53.954Z,97.27
2019-03-22T04:58:53.941Z,97.17
2019-03-22T04:59:53.933Z,97.36
2019-03-22T05:00:53.929Z,96.98
2019-03-22T05:01:53.915Z,96.88
2019-03-22T05:02:53.902Z,96.88
2019-03-22T05:03:53.894Z,96.79
2019-03-22T05:04:53.881Z,97.07
2019-03-22T05:05:53.883Z,96.98
2019-03-22T05:06:53.867Z,96.98
2019-03-22T05:07:53.853Z,96.69
2019-03-22T05:08:53.849Z,97.27
2019-03-22T05:09:53.840Z,97.64
2019-03-22T05:10:53.826Z,97.36
2019-03-22T05:11:53.820Z,97.27
2019-03-22T05:12:53.805Z,98.02
2019-03-22T05:13:53.795Z,98.02
2019-03-22T05:14:53.791Z,98.02
2019-03-22T05:15:53.791Z,98.40
2019-03-22T05:16:53.767Z,98.12
2019-03-22T05:17:53.756Z,98.21
2019-03-22T05:18:53.751Z,98.12
2019-03-22T05:19:53.738Z,98.97
2019-03-22T05:20:53.732Z,98.97
2019-03-22T05:21:53.725Z,99.44
2019-03-22T05:22:53.714Z,99.26
2019-03-22T05:23:53.708Z,99.35
2019-03-22T05:24:53.688Z,99.54
2019-03-22T05:25:53.680Z,99.16
2019-03-22T05:26:53.668Z,99.16
2019-03-22T05:27:53.661Z,99.16
2019-03-22T05:28:53.652Z,99.26
2019-03-22T05:29:53.643Z,98.97
2019-03-22T05:30:53.629Z,98.50
2019-03-22T05:31:53.619Z,98.31
2019-03-22T05:32:53.614Z,98.21
2019-03-22T05:33:53.605Z,97.64
2019-03-22T05:34:53.596Z,98.21
2019-03-22T05:35:53.586Z,98.02
2019-03-22T05:36:53.573Z,98.02
2019-03-22T05:37:53.563Z,97.83
2019-03-22T05:38:53.554Z,98.02
2019-03-22T05:39:53.544Z,98.12
2019-03-22T05:40:53.536Z,97.83
2019-03-22T05:41:53.527Z,97.92
2019-03-22T05:42:53.518Z,98.31
2019-03-22T05:43:53.506Z,97.64
2019-03-22T05:44:53.493Z,98.02
2019-03-22T05:45:53.483Z,98.02
2019-03-22T05:46:53.479Z,97.74
2019-03-22T05:47:53.468Z,97.83
2019-03-22T05:48:53.453Z,98.02
2019-03-22T05:49:53.446Z,97.36
2019-03-22T05:50:53.437Z,97.55
2019-03-22T05:51:53.425Z,97.27
2019-03-22T05:52:53.426Z,97.64
2019-03-22T05:53:53.416Z,97.36
2019-03-22T05:54:53.404Z,97.17
2019-03-22T05:55:53.392Z,97.64
2019-03-22T05:56:53.381Z,97.45
2019-03-22T05:57:53.372Z,97.17
2019-03-22T05:58:53.356Z,97.36
2019-03-22T05:59:53.347Z,97.17
2019-03-22T06:00:53.342Z,97.55
2019-03-22T06:01:53.336Z,97.50
2019-03-22T06:02:53.320Z,97.50
2019-03-22T06:03:53.307Z,97.12
2019-03-22T06:04:53.305Z,97.22
2019-03-22T06:05:53.294Z,96.93
2019-03-22T06:06:53.287Z,96.08
2019-03-22T06:07:53.281Z,96.08
2019-03-22T06:08:53.263Z,96.26
2019-03-22T06:09:53.256Z,96.17
2019-03-22T06:10:53.248Z,96.26
2019-03-22T06:11:53.236Z,96.26
2019-03-22T06:12:53.224Z,96.36
2019-03-22T06:13:53.214Z,96.45
2019-03-22T06:14:53.207Z,96.26
2019-03-22T06:15:53.199Z,96.45
2019-03-22T06:16:53.191Z,96.26
2019-03-22T06:17:53.185Z,96.55
2019-03-22T06:18:53.171Z,96.08
2019-03-22T06:19:53.159Z,96.22
2019-03-22T06:20:53.155Z,95.60
2019-03-22T06:21:53.145Z,95.84
2019-03-22T06:22:53.136Z,95.75
2019-03-22T06:23:53.124Z,95.94
2019-03-22T06:24:53.119Z,95.84
2019-03-22T06:25:53.104Z,95.84
2019-03-22T06:26:53.092Z,96.03
2019-03-22T06:27:53.084Z,95.56
2019-03-22T06:28:53.080Z,95.60
2019-03-22T06:29:54.554Z,95.41
2019-03-22T06:30:53.066Z,95.22
2019-03-22T06:31:53.056Z,95.22
2019-03-22T06:32:53.042Z,94.74
2019-03-22T06:33:53.033Z,94.65
2019-03-22T06:34:53.028Z,94.65
2019-03-22T06:35:53.020Z,95.03
2019-03-22T06:36:53.005Z,94.60
2019-03-22T06:37:52.998Z,94.79
2019-03-22T06:38:52.986Z,94.42
2019-03-22T06:39:52.980Z,93.84
2019-03-22T06:40:52.974Z,93.84
2019-03-22T06:41:52.965Z,93.70
2019-03-22T06:42:52.959Z,93.41
2019-03-22T06:43:52.952Z,93.70
2019-03-22T06:44:52.935Z,92.74
2019-03-22T06:45:52.930Z,92.69
2019-03-22T06:46:52.924Z,92.13
2019-03-22T06:47:52.914Z,92.22
2019-03-22T06:48:52.921Z,91.65
2019-03-22T06:49:52.903Z,90.89
2019-03-22T06:50:52.892Z,91.13
2019-03-22T06:51:52.884Z,90.08
2019-03-22T06:52:52.880Z,90.17
2019-03-22T06:53:52.873Z,89.89
2019-03-22T06:54:52.864Z,89.26
2019-03-22T06:55:52.859Z,89.17
2019-03-22T06:56:52.844Z,88.54
2019-03-22T06:57:52.837Z,88.73
2019-03-22T06:58:52.868Z,87.02
2019-03-22T06:59:52.824Z,86.92
2019-03-22T07:00:52.820Z,85.44
2019-03-22T07:01:52.813Z,85.34
2019-03-22T07:02:52.809Z,84.43
2019-03-22T07:03:52.801Z,83.61
2019-03-22T07:04:52.792Z,82.79
2019-03-22T07:05:52.785Z,81.11
2019-03-22T07:06:52.784Z,79.52
2019-03-22T07:07:52.776Z,77.65
2019-03-22T07:08:52.771Z,75.87
2019-03-22T07:09:52.764Z,73.90
2019-03-22T07:10:52.754Z,72.74
2019-03-22T07:11:52.748Z,72.42
2019-03-22T07:12:52.748Z,72.32
2019-03-22T07:13:52.746Z,72.23
2019-03-22T07:14:52.743Z,72.03
2019-03-22T07:15:52.739Z,71.94
2019-03-22T07:16:52.731Z,71.94
2019-03-22T07:17:52.726Z,72.13
2019-03-22T07:18:52.720Z,72.13
2019-03-22T07:19:52.716Z,72.17
2019-03-22T07:20:52.717Z,71.69
2019-03-22T07:21:52.715Z,71.69
2019-03-22T07:22:52.704Z,70.67
2019-03-22T07:23:52.702Z,69.90
2019-03-22T07:24:52.703Z,69.07
2019-03-22T07:25:52.698Z,68.40
2019-03-22T07:26:52.698Z,67.47
2019-03-22T07:27:52.695Z,67.32
2019-03-22T07:28:52.687Z,66.58
2019-03-22T07:29:52.685Z,64.98
2019-03-22T07:30:52.685Z,63.48
2019-03-22T07:31:52.680Z,62.54
2019-03-22T07:32:52.680Z,61.29
2019-03-22T07:33:52.685Z,60.36
2019-03-22T07:34:52.676Z,59.62
2019-03-22T07:35:52.673Z,58.65
2019-03-22T07:36:52.669Z,58.11
2019-03-22T07:37:52.667Z,56.79
2019-03-22T07:38:52.672Z,56.33
2019-03-22T07:39:52.671Z,55.59
2019-03-22T07:40:52.666Z,54.36
2019-03-22T07:41:52.667Z,53.01
2019-03-22T07:42:52.669Z,52.53
2019-03-22T07:43:52.669Z,51.95
2019-03-22T07:44:52.674Z,52.43
2019-03-22T07:45:52.674Z,51.85
2019-03-22T07:46:52.679Z,52.43
2019-03-22T07:47:52.683Z,52.33
2019-03-22T07:48:52.674Z,52.23
2019-03-22T07:49:52.676Z,52.11
2019-03-22T07:50:52.676Z,52.14
2019-03-22T07:51:52.676Z,52.17
2019-03-22T07:52:52.684Z,51.29
2019-03-22T07:53:52.686Z,50.96
2019-03-22T07:54:52.683Z,50.18
2019-03-22T07:55:52.685Z,49.32
2019-03-22T07:56:52.695Z,49.22
2019-03-22T07:57:52.695Z,48.95
2019-03-22T07:58:52.702Z,48.79
2019-03-22T07:59:52.703Z,47.81
2019-03-22T08:00:52.702Z,46.99
2019-03-22T08:01:52.707Z,46.24
2019-03-22T08:02:52.709Z,44.71
2019-03-22T08:03:52.711Z,44.42
2019-03-22T08:04:52.719Z,44.05
2019-03-22T08:05:52.726Z,43.68
2019-03-22T08:06:52.725Z,43.20
2019-03-22T08:07:52.732Z,42.44
2019-03-22T08:08:52.729Z,42.54
2019-03-22T08:09:52.778Z,42.44
2019-03-22T08:10:52.745Z,42.08
2019-03-22T08:11:52.750Z,41.22
2019-03-22T08:12:52.749Z,41.34
2019-03-22T08:13:52.756Z,40.68
2019-03-22T08:14:52.761Z,40.01
2019-03-22T08:15:52.769Z,38.95
2019-03-22T08:16:52.779Z,38.49
2019-03-22T08:17:52.786Z,38.38
2019-03-22T08:18:52.796Z,38.30
2019-03-22T08:19:52.816Z,38.10
2019-03-22T08:20:52.794Z,37.71
2019-03-22T08:21:52.804Z,37.02
2019-03-22T08:22:52.833Z,37.13
2019-03-22T08:23:52.817Z,37.60
2019-03-22T08:24:52.828Z,37.79
2019-03-22T08:25:52.836Z,36.92
2019-03-22T08:26:52.838Z,37.00
2019-03-22T08:27:52.846Z,38.09
2019-03-22T08:28:52.865Z,37.60
2019-03-22T08:29:52.865Z,37.13
2019-03-22T08:30:52.880Z,37.05
2019-03-22T08:31:52.901Z,36.66
2019-03-22T08:32:52.898Z,36.96
2019-03-22T08:33:52.891Z,36.49
2019-03-22T08:34:52.900Z,36.76
2019-03-22T08:35:52.903Z,36.35
2019-03-22T08:36:52.943Z,36.74
2019-03-22T08:37:53.144Z,36.94
2019-03-22T08:38:52.935Z,37.33
2019-03-22T08:39:55.795Z,37.31
2019-03-22T08:40:52.946Z,37.21
2019-03-22T08:41:52.956Z,36.72
2019-03-22T08:42:52.989Z,36.84
2019-03-22T08:43:52.974Z,36.55
2019-03-22T08:44:52.979Z,36.14
2019-03-22T08:45:52.988Z,36.53
2019-03-22T08:46:52.991Z,36.65
2019-03-22T08:47:53.002Z,36.27
2019-03-22T08:48:53.017Z,36.18
2019-03-22T08:49:53.056Z,35.78
2019-03-22T08:50:53.030Z,35.61
2019-03-22T08:51:53.038Z,35.43
2019-03-22T08:52:53.042Z,34.77
2019-03-22T08:53:55.567Z,34.29
2019-03-22T08:54:53.061Z,33.72
2019-03-22T08:55:53.071Z,33.25
2019-03-22T08:56:53.083Z,32.58
2019-03-22T08:57:53.120Z,31.93
2019-03-22T08:58:53.125Z,31.91
2019-03-22T08:59:53.124Z,31.80
2019-03-22T09:00:57.856Z,31.52
2019-03-22T09:01:53.152Z,32.32
2019-03-22T09:02:53.142Z,31.65
2019-03-22T09:03:53.165Z,30.68
2019-03-22T09:04:53.156Z,30.98
2019-03-22T09:05:53.194Z,30.88
2019-03-22T09:06:53.186Z,30.40
2019-03-22T09:07:53.197Z,29.91
2019-03-22T09:08:53.199Z,29.70
2019-03-22T09:09:53.212Z,29.58
2019-03-22T09:10:53.226Z,30.36
2019-03-22T09:11:53.323Z,30.85
2019-03-22T09:12:53.243Z,31.03
2019-03-22T09:13:53.882Z,30.74
2019-03-22T09:14:53.374Z,31.41
2019-03-22T09:15:53.307Z,31.55
2019-03-22T09:16:53.286Z,31.58
2019-03-22T09:17:53.305Z,30.47
2019-03-22T09:18:53.345Z,29.87
2019-03-22T09:19:53.353Z,30.08
2019-03-22T09:20:53.354Z,30.13
2019-03-22T09:21:53.348Z,30.91
2019-03-22T09:22:53.363Z,31.04
2019-03-22T09:23:53.386Z,30.64
2019-03-22T09:24:53.382Z,30.85
2019-03-22T09:25:53.395Z,30.94
2019-03-22T09:26:53.439Z,31.42
2019-03-22T09:27:53.453Z,31.71
2019-03-22T09:28:53.464Z,31.73
2019-03-22T09:29:53.478Z,31.47
2019-03-22T09:30:53.454Z,31.48
2019-03-22T09:31:53.840Z,30.62
2019-03-22T09:32:53.498Z,30.62
2019-03-22T09:33:53.493Z,29.57
2019-03-22T09:34:53.509Z,29.09
2019-03-22T09:35:53.531Z,28.50
2019-03-22T09:36:53.528Z,27.87
2019-03-22T09:37:53.539Z,28.63
2019-03-22T09:38:53.566Z,29.43
2019-03-22T09:39:53.602Z,28.95
2019-03-22T09:40:53.580Z,28.34
2019-03-22T09:41:53.595Z,29.03
2019-03-22T09:42:53.641Z,29.53
2019-03-22T09:43:53.680Z,28.86
2019-03-22T09:44:53.758Z,27.88
2019-03-22T09:45:53.680Z,28.15
2019-03-22T09:46:53.654Z,27.63
2019-03-22T09:47:53.665Z,28.39
2019-03-22T09:48:53.674Z,29.00
2019-03-22T09:49:53.686Z,29.50
2019-03-22T09:50:53.701Z,28.64
2019-03-22T09:51:55.212Z,27.59
2019-03-22T09:52:53.735Z,27.70
2019-03-22T09:53:53.745Z,28.02
2019-03-22T09:54:53.758Z,27.27
2019-03-22T09:55:53.774Z,26.70
2019-03-22T09:56:53.805Z,26.21
2019-03-22T09:57:53.880Z,25.40
2019-03-22T09:58:53.835Z,25.22
2019-03-22T09:59:53.817Z,24.64
2019-03-22T10:00:53.931Z,24.73
2019-03-22T10:01:53.882Z,24.52
2019-03-22T10:02:53.855Z,25.71
2019-03-22T10:03:53.869Z,25.83
2019-03-22T10:04:53.898Z,24.76
2019-03-22T10:05:53.906Z,24.73
2019-03-22T10:06:53.947Z,24.91
2019-03-22T10:07:53.949Z,24.96
2019-03-22T10:08:53.943Z,25.57
2019-03-22T10:09:53.968Z,25.89
2019-03-22T10:10:54.002Z,25.33
2019-03-22T10:11:53.988Z,25.89
2019-03-22T10:12:54.005Z,25.88
2019-03-22T10:13:54.023Z,26.08
2019-03-22T10:14:54.035Z,25.17
2019-03-22T10:15:54.049Z,25.67
2019-03-22T10:16:54.113Z,25.67
2019-03-22T10:17:54.097Z,25.62
2019-03-22T10:18:54.127Z,26.82
2019-03-22T10:19:54.109Z,26.07
2019-03-22T10:20:54.246Z,25.88
2019-03-22T10:21:54.136Z,25.60
2019-03-22T10:22:54.154Z,24.22
2019-03-22T10:23:54.206Z,24.49
2019-03-22T10:24:54.249Z,25.27
2019-03-22T10:25:54.234Z,25.09
2019-03-22T10:26:54.224Z,26.58
2019-03-22T10:27:54.241Z,26.87
2019-03-22T10:28:54.261Z,27.20
2019-03-22T10:29:54.301Z,26.17
2019-03-22T10:30:54.308Z,25.27
2019-03-22T10:31:54.312Z,25.48
2019-03-22T10:32:54.311Z,25.16
2019-03-22T10:33:54.324Z,25.63
2019-03-22T10:34:54.345Z,25.21
2019-03-22T10:35:54.374Z,25.57
2019-03-22T10:36:54.390Z,26.14
2019-03-22T10:38:00.314Z,28.11
2019-03-22T10:38:54.469Z,27.66
2019-03-22T10:39:54.500Z,28.28
2019-03-22T10:40:54.428Z,28.34
2019-03-22T10:41:54.444Z,28.49
2019-03-22T10:42:54.471Z,29.41
2019-03-22T10:43:54.472Z,29.06
2019-03-22T10:44:54.492Z,29.52
2019-03-22T10:45:54.506Z,30.63
2019-03-22T10:46:54.528Z,31.41
2019-03-22T10:47:54.564Z,30.71
2019-03-22T10:48:54.557Z,31.04
2019-03-22T10:49:54.630Z,29.85
2019-03-22T10:50:54.598Z,30.18
2019-03-22T10:51:57.484Z,30.08
2019-03-22T10:52:54.642Z,29.95
2019-03-22T10:53:54.614Z,30.84
2019-03-22T10:54:54.687Z,30.59
2019-03-22T10:55:54.643Z,29.39
2019-03-22T10:56:54.661Z,29.25
2019-03-22T10:57:55.578Z,29.83
2019-03-22T10:58:54.691Z,32.21
2019-03-22T10:59:54.702Z,31.93
2019-03-22T11:00:54.711Z,34.92
2019-03-22T11:02:03.161Z,32.39
2019-03-22T11:02:54.737Z,32.09
2019-03-22T11:03:54.788Z,34.75
2019-03-22T11:04:54.774Z,35.24
2019-03-22T11:05:54.780Z,36.51
2019-03-22T11:06:54.792Z,32.42
2019-03-22T11:07:54.802Z,31.62
2019-03-22T11:08:54.822Z,30.83
2019-03-22T11:09:54.833Z,31.37
2019-03-22T11:10:54.850Z,32.32
2019-03-22T11:11:54.863Z,32.26
2019-03-22T11:12:54.872Z,31.95
2019-03-22T11:13:54.885Z,31.98
2019-03-22T11:14:54.896Z,31.90
2019-03-22T11:15:54.910Z,31.85
2019-03-22T11:16:54.925Z,30.27
2019-03-22T11:17:54.941Z,30.88
2019-03-22T11:18:54.955Z,29.14
2019-03-22T11:19:54.962Z,28.40
2019-03-22T11:21:04.540Z,29.44
2019-03-22T11:21:54.982Z,30.02
2019-03-22T11:22:55.000Z,29.58
2019-03-22T11:23:55.013Z,34.55
2019-03-22T11:24:55.020Z,35.83
2019-03-22T11:26:03.832Z,32.76
2019-03-22T11:26:55.050Z,32.75
2019-03-22T11:27:55.064Z,33.09
2019-03-22T11:28:55.080Z,33.94
2019-03-22T11:29:55.088Z,35.33
2019-03-22T11:31:01.158Z,35.21
2019-03-22T11:31:55.110Z,35.48
2019-03-22T11:32:55.116Z,37.03
2019-03-22T11:33:55.129Z,41.10
2019-03-22T11:34:55.143Z,40.81
2019-03-22T11:35:55.151Z,41.78
2019-03-22T11:36:55.168Z,41.97
2019-03-22T11:37:55.178Z,42.26
2019-03-22T11:38:55.184Z,43.31
2019-03-22T11:39:55.191Z,40.67
2019-03-22T11:40:55.208Z,43.48
2019-03-22T11:41:55.213Z,40.86
2019-03-22T11:42:55.219Z,39.64
2019-03-22T11:43:55.226Z,42.76
2019-03-22T11:44:55.230Z,44.98
2019-03-22T11:45:55.235Z,44.23
2019-03-22T11:46:55.245Z,44.72
2019-03-22T11:47:55.249Z,41.99
2019-03-22T11:48:55.262Z,45.57
2019-03-22T11:49:55.267Z,43.98
2019-03-22T11:50:55.274Z,43.59
2019-03-22T11:51:55.285Z,42.43
2019-03-22T11:52:55.281Z,42.33
2019-03-22T11:53:55.287Z,42.82
2019-03-22T11:54:55.296Z,44.75
2019-03-22T11:55:55.299Z,43.49
2019-03-22T11:56:55.300Z,44.96
2019-03-22T11:57:55.307Z,45.93
2019-03-22T11:58:55.306Z,46.80
2019-03-22T11:59:55.310Z,46.70
2019-03-22T12:00:55.318Z,43.80
2019-03-22T12:01:55.332Z,43.61
2019-03-22T12:02:55.326Z,42.33
2019-03-22T12:03:55.328Z,42.82
2019-03-22T12:04:55.329Z,43.78
2019-03-22T12:05:55.331Z,43.10
2019-03-22T12:06:55.338Z,42.87
2019-03-22T12:07:55.340Z,44.03
2019-03-22T12:08:55.348Z,45.21
2019-03-22T12:09:55.350Z,47.05
2019-03-22T12:10:55.349Z,46.58
2019-03-22T12:11:55.350Z,47.65
2019-03-22T12:12:55.357Z,47.86
2019-03-22T12:13:55.360Z,46.88
2019-03-22T12:14:55.359Z,46.61
2019-03-22T12:15:55.363Z,46.12
2019-03-22T12:16:56.717Z,46.00
2019-03-22T12:17:55.362Z,44.92
2019-03-22T12:18:55.365Z,48.13
2019-03-22T12:19:55.366Z,46.17
2019-03-22T12:20:56.627Z,46.88
2019-03-22T12:21:55.374Z,48.52
2019-03-22T12:22:55.381Z,47.94
2019-03-22T12:23:55.379Z,48.25
2019-03-22T12:24:55.378Z,49.12
2019-03-22T12:25:55.380Z,48.74
2019-03-22T12:26:55.386Z,46.10
2019-03-22T12:27:55.388Z,46.39
2019-03-22T12:28:55.385Z,48.32
2019-03-22T12:29:55.387Z,47.36
2019-03-22T12:30:55.386Z,47.94
2019-03-22T12:31:55.385Z,47.33
2019-03-22T12:32:55.394Z,48.59
2019-03-22T12:33:55.393Z,48.32
2019-03-22T12:34:55.398Z,46.27
2019-03-22T12:35:55.399Z,47.05
2019-03-22T12:36:55.396Z,49.10
2019-03-22T12:37:57.631Z,49.19
2019-03-22T12:38:55.396Z,47.24
2019-03-22T12:39:55.395Z,46.85
2019-03-22T12:40:55.401Z,45.86
2019-03-22T12:41:55.404Z,46.15
2019-03-22T12:42:56.631Z,48.28
2019-03-22T12:43:55.402Z,49.65
2019-03-22T12:44:55.408Z,49.95
2019-03-22T12:45:55.408Z,48.88
2019-03-22T12:46:55.411Z,46.83
2019-03-22T12:47:55.412Z,46.03
2019-03-22T12:48:55.408Z,47.02
2019-03-22T12:49:55.409Z,49.63
2019-03-22T12:50:55.411Z,50.13
2019-03-22T12:51:55.411Z,50.26
2019-03-22T12:52:55.416Z,49.39
2019-03-22T12:53:55.419Z,48.90
2019-03-22T12:54:55.416Z,49.77
2019-03-22T12:55:55.416Z,49.49
2019-03-22T12:56:55.416Z,47.84
2019-03-22T12:57:55.415Z,47.94
2019-03-22T12:58:55.421Z,47.14